Time;durP1;ratioP1;P1;durP2;ratioP2;P2;SDS_P1;SDS_P2;PMS_P1;PMS_P2;Temp;Humidity;BMP_temperature;BMP_pressure;BME280_temperature;BME280_humidity;BME280_pressure;Samples;Min_cycle;Max_cycle;Signal;HPM_P1;HPM_P2
2022/02/16 00:00:50;;;;;;;3.35;1.20;;;;;;;;;;5007746;28;20100;-67
2022/02/16 00:03:16;;;;;;;3.22;1.00;;;;;;;;;;5000304;28;20143;-66
2022/02/16 00:05:42;;;;;;;3.20;0.93;;;;;;;;;;4992083;28;20088;-68
2022/02/16 00:08:09;;;;;;;5.15;1.23;;;;;;;;;;5008021;28;20026;-66
2022/02/16 00:10:35;;;;;;;2.83;0.82;;;;;;;;;;5007226;28;20030;-66
2022/02/16 00:13:01;;;;;;;3.22;0.95;;;;;;;;;;5008849;28;20113;-64
2022/02/16 00:15:28;;;;;;;2.58;0.82;;;;;;;;;;5008409;28;20053;-64
2022/02/16 00:17:54;;;;;;;4.38;1.10;;;;;;;;;;5006999;28;20033;-65
2022/02/16 00:20:20;;;;;;;3.08;0.80;;;;;;;;;;5008559;28;20109;-65
2022/02/16 00:22:47;;;;;;;3.03;1.00;;;;;;;;;;5007767;28;20034;-66
2022/02/16 00:25:13;;;;;;;4.18;0.80;;;;;;;;;;5008988;28;20038;-66
2022/02/16 00:27:39;;;;;;;5.80;1.10;;;;;;;;;;5008895;28;20026;-67
2022/02/16 00:30:05;;;;;;;4.35;1.00;;;;;;;;;;5008682;28;20125;-67
2022/02/16 00:32:32;;;;;;;5.78;1.05;;;;;;;;;;5008356;28;20499;-66
2022/02/16 00:34:58;;;;;;;2.90;0.80;;;;;;;;;;5011671;28;20106;-69
2022/02/16 00:37:24;;;;;;;4.55;1.10;;;;;;;;;;5011296;28;20026;-67
2022/02/16 00:39:51;;;;;;;4.55;1.00;;;;;;;;;;5011554;28;20058;-67
2022/02/16 00:42:17;;;;;;;3.60;1.02;;;;;;;;;;5010402;28;20688;-68
2022/02/16 00:44:43;;;;;;;3.35;1.00;;;;;;;;;;5010602;28;20080;-68
2022/02/16 00:47:09;;;;;;;2.65;0.90;;;;;;;;;;5011129;28;20034;-62
2022/02/16 00:49:35;;;;;;;4.55;1.02;;;;;;;;;;5013772;28;20032;-66
2022/02/16 00:52:01;;;;;;;5.07;1.48;;;;;;;;;;5012003;28;20325;-66
2022/02/16 00:54:27;;;;;;;3.10;1.02;;;;;;;;;;5011313;28;20037;-65
2022/02/16 00:56:53;;;;;;;3.70;0.80;;;;;;;;;;5011751;28;20032;-66
2022/02/16 00:59:21;;;;;;;3.40;0.90;;;;;;;;;;5011628;28;20029;-66
2022/02/16 01:01:47;;;;;;;2.22;0.90;;;;;;;;;;5011374;28;20030;-65
2022/02/16 01:04:13;;;;;;;4.75;1.40;;;;;;;;;;5012155;28;20068;-66
2022/02/16 01:06:39;;;;;;;2.95;1.00;;;;;;;;;;5011999;28;20053;-66
2022/02/16 01:09:05;;;;;;;2.47;0.85;;;;;;;;;;5011184;28;20041;-66
2022/02/16 01:11:32;;;;;;;3.33;0.98;;;;;;;;;;5011441;28;20044;-66
2022/02/16 01:13:58;;;;;;;2.97;1.00;;;;;;;;;;5010606;28;20085;-66
2022/02/16 01:16:29;;;;;;;3.10;1.00;;;;;;;;;;5009223;28;20057;-67
2022/02/16 01:18:55;;;;;;;3.30;1.25;;;;;;;;;;5004599;28;20029;-66
2022/02/16 01:21:23;;;;;;;3.38;1.15;;;;;;;;;;5010543;28;20092;-66
2022/02/16 01:23:49;;;;;;;2.70;0.90;;;;;;;;;;5010259;28;20018;-65
2022/02/16 01:26:17;;;;;;;2.28;0.88;;;;;;;;;;5010400;28;20033;-66
2022/02/16 01:28:43;;;;;;;3.15;0.98;;;;;;;;;;5010632;28;20113;-65
2022/02/16 01:31:09;;;;;;;3.47;1.48;;;;;;;;;;5006284;28;20105;-66
2022/02/16 01:33:35;;;;;;;3.40;0.90;;;;;;;;;;4993611;28;20153;-65
2022/02/16 01:36:01;;;;;;;3.10;1.00;;;;;;;;;;5009211;28;20065;-66
2022/02/16 01:38:27;;;;;;;2.45;0.80;;;;;;;;;;5010205;28;20025;-66
2022/02/16 01:40:53;;;;;;;3.08;1.23;;;;;;;;;;5009092;28;20652;-66
2022/02/16 01:43:20;;;;;;;3.88;1.55;;;;;;;;;;5010102;28;20056;-66
2022/02/16 01:45:46;;;;;;;3.05;0.90;;;;;;;;;;5010319;28;20037;-68
2022/02/16 01:48:12;;;;;;;2.20;0.77;;;;;;;;;;5018520;28;20053;-68
2022/02/16 01:50:39;;;;;;;2.50;0.90;;;;;;;;;;5009945;28;20120;-66
2022/02/16 01:53:05;;;;;;;4.10;1.55;;;;;;;;;;5010162;28;20065;-66
2022/02/16 01:55:31;;;;;;;4.72;1.10;;;;;;;;;;5009994;28;20247;-66
2022/02/16 01:57:58;;;;;;;3.17;0.95;;;;;;;;;;5010385;28;20113;-67
2022/02/16 02:00:24;;;;;;;3.42;0.98;;;;;;;;;;5010348;28;20030;-68
2022/02/16 02:02:50;;;;;;;1.58;0.80;;;;;;;;;;5008931;28;20041;-67
2022/02/16 02:05:16;;;;;;;3.10;1.00;;;;;;;;;;5001203;28;20080;-65
2022/02/16 02:07:42;;;;;;;2.60;0.90;;;;;;;;;;5009797;28;20026;-67
2022/02/16 02:10:09;;;;;;;4.03;1.48;;;;;;;;;;5009939;28;20093;-67
2022/02/16 02:12:42;;;;;;;4.53;0.90;;;;;;;;;;5009813;28;20080;-67
2022/02/16 02:15:09;;;;;;;1.75;0.80;;;;;;;;;;5010117;28;20037;-67
2022/02/16 02:17:35;;;;;;;2.35;0.80;;;;;;;;;;5009752;28;20026;-67
2022/02/16 02:20:01;;;;;;;2.88;1.10;;;;;;;;;;5008272;28;20026;-67
2022/02/16 02:22:27;;;;;;;3.50;1.23;;;;;;;;;;5008323;28;20049;-66
2022/02/16 02:24:53;;;;;;;1.80;0.75;;;;;;;;;;5009509;28;20022;-67
2022/02/16 02:27:19;;;;;;;3.22;1.02;;;;;;;;;;5009276;28;20440;-66
2022/02/16 02:29:45;;;;;;;2.92;1.00;;;;;;;;;;5009690;28;20033;-65
2022/02/16 02:32:16;;;;;;;2.38;0.95;;;;;;;;;;5008757;28;20026;-65
2022/02/16 02:34:42;;;;;;;4.15;1.13;;;;;;;;;;4994839;28;20042;-65
2022/02/16 02:37:08;;;;;;;2.95;0.80;;;;;;;;;;5009473;28;20037;-65
2022/02/16 02:39:34;;;;;;;3.47;1.33;;;;;;;;;;5009159;28;20112;-65
2022/02/16 02:42:00;;;;;;;1.35;0.63;;;;;;;;;;5009062;28;20017;-65
2022/02/16 02:44:26;;;;;;;1.65;0.70;;;;;;;;;;5008902;28;20052;-65
2022/02/16 02:46:53;;;;;;;4.47;0.85;;;;;;;;;;5007736;28;20026;-65
2022/02/16 02:49:20;;;;;;;3.75;0.95;;;;;;;;;;5003762;28;20034;-65
2022/02/16 02:51:47;;;;;;;1.38;0.70;;;;;;;;;;5000576;28;20034;-65
2022/02/16 02:54:14;;;;;;;2.58;0.80;;;;;;;;;;5008659;28;20037;-65
2022/02/16 02:56:40;;;;;;;1.35;0.60;;;;;;;;;;5007545;28;20029;-65
2022/02/16 02:59:06;;;;;;;2.47;0.95;;;;;;;;;;5009102;28;20026;-65
2022/02/16 03:01:32;;;;;;;2.45;0.70;;;;;;;;;;5008331;28;20033;-65
2022/02/16 03:03:58;;;;;;;2.58;0.77;;;;;;;;;;5008927;28;20022;-66
2022/02/16 03:06:24;;;;;;;2.85;0.77;;;;;;;;;;5006799;28;20076;-68
2022/02/16 03:08:50;;;;;;;1.42;0.60;;;;;;;;;;5007750;28;20476;-66
2022/02/16 03:11:19;;;;;;;3.63;0.80;;;;;;;;;;5008169;28;20034;-66
2022/02/16 03:13:45;;;;;;;1.70;0.90;;;;;;;;;;5008744;28;20091;-65
2022/02/16 03:16:11;;;;;;;2.70;0.77;;;;;;;;;;5009340;28;20137;-67
2022/02/16 03:18:37;;;;;;;4.05;0.80;;;;;;;;;;5008717;28;20033;-67
2022/02/16 03:21:03;;;;;;;2.20;0.70;;;;;;;;;;5005825;28;20416;-66
2022/02/16 03:23:29;;;;;;;2.03;0.90;;;;;;;;;;5008204;28;20392;-67
2022/02/16 03:25:55;;;;;;;1.80;0.60;;;;;;;;;;5007906;28;20036;-67
2022/02/16 03:28:21;;;;;;;1.60;0.70;;;;;;;;;;5008182;28;20030;-66
2022/02/16 03:30:47;;;;;;;2.38;0.88;;;;;;;;;;5008663;28;20030;-66
2022/02/16 03:33:13;;;;;;;3.67;0.90;;;;;;;;;;5008054;28;20127;-66
2022/02/16 03:35:39;;;;;;;2.67;1.08;;;;;;;;;;5008054;28;20042;-66
2022/02/16 03:38:05;;;;;;;1.60;0.73;;;;;;;;;;5008275;28;20030;-66
2022/02/16 03:40:31;;;;;;;2.47;0.85;;;;;;;;;;5008193;28;20467;-66
2022/02/16 03:42:58;;;;;;;1.83;0.85;;;;;;;;;;5008179;28;20052;-66
2022/02/16 03:45:25;;;;;;;2.65;0.90;;;;;;;;;;5008136;28;20468;-65
2022/02/16 03:47:52;;;;;;;2.03;0.73;;;;;;;;;;5008842;28;20403;-65
2022/02/16 03:50:18;;;;;;;1.42;0.63;;;;;;;;;;5006921;28;20022;-66
2022/02/16 03:52:44;;;;;;;1.80;0.70;;;;;;;;;;5008544;28;20057;-66
2022/02/16 03:55:10;;;;;;;1.80;0.77;;;;;;;;;;5008042;28;20030;-66
2022/02/16 03:57:37;;;;;;;5.32;0.85;;;;;;;;;;5008261;28;20030;-66
2022/02/16 04:00:04;;;;;;;3.42;0.80;;;;;;;;;;5006925;28;20479;-65
2022/02/16 04:02:30;;;;;;;2.70;1.00;;;;;;;;;;5007008;28;20038;-65
2022/02/16 04:04:56;;;;;;;2.88;0.52;;;;;;;;;;5008575;28;20113;-65
2022/02/16 04:07:22;;;;;;;1.75;0.68;;;;;;;;;;5011260;28;20105;-66
2022/02/16 04:09:48;;;;;;;1.80;0.82;;;;;;;;;;5010754;28;20454;-66
2022/02/16 04:12:14;;;;;;;2.38;1.00;;;;;;;;;;5012311;28;20603;-65
2022/02/16 04:14:41;;;;;;;2.70;0.90;;;;;;;;;;5012054;28;20136;-65
2022/02/16 04:17:07;;;;;;;2.78;1.00;;;;;;;;;;5011646;28;20029;-65
2022/02/16 04:19:33;;;;;;;2.17;0.73;;;;;;;;;;5008779;28;20038;-64
2022/02/16 04:21:59;;;;;;;1.30;0.52;;;;;;;;;;5010175;28;20052;-64
2022/02/16 04:24:25;;;;;;;2.45;0.73;;;;;;;;;;5012090;28;20021;-65
2022/02/16 04:26:51;;;;;;;1.30;0.73;;;;;;;;;;5001969;28;20083;-65
2022/02/16 04:29:17;;;;;;;2.85;0.75;;;;;;;;;;5011577;28;20461;-66
2022/02/16 04:31:43;;;;;;;3.33;1.00;;;;;;;;;;5011961;28;20037;-66
2022/02/16 04:34:09;;;;;;;2.38;0.60;;;;;;;;;;5011656;28;20034;-66
2022/02/16 04:36:35;;;;;;;4.00;0.88;;;;;;;;;;5011081;28;20026;-66
2022/02/16 04:39:02;;;;;;;2.53;0.80;;;;;;;;;;5011431;28;20112;-65
2022/02/16 04:41:28;;;;;;;0.90;0.50;;;;;;;;;;5009561;28;20556;-66
2022/02/16 04:43:54;;;;;;;1.52;0.50;;;;;;;;;;5010933;28;20057;-66
2022/02/16 04:46:20;;;;;;;1.65;0.57;;;;;;;;;;5010727;28;20451;-66
2022/02/16 04:48:46;;;;;;;3.35;1.05;;;;;;;;;;5016369;28;20076;-66
2022/02/16 04:51:12;;;;;;;3.38;0.77;;;;;;;;;;5000643;28;20400;-66
2022/02/16 04:53:38;;;;;;;1.80;0.45;;;;;;;;;;5010527;28;20117;-66
2022/02/16 04:56:05;;;;;;;1.65;0.55;;;;;;;;;;5011211;28;20022;-66
2022/02/16 04:58:32;;;;;;;1.88;0.60;;;;;;;;;;5010707;28;20101;-66
2022/02/16 05:00:58;;;;;;;2.13;0.50;;;;;;;;;;5009853;28;20615;-65
2022/02/16 05:03:24;;;;;;;2.08;0.70;;;;;;;;;;5010973;28;20029;-64
2022/02/16 05:05:50;;;;;;;2.55;0.80;;;;;;;;;;4997733;28;20030;-66
2022/02/16 05:08:17;;;;;;;3.35;0.80;;;;;;;;;;5010743;28;20022;-65
2022/02/16 05:10:42;;;;;;;2.90;0.68;;;;;;;;;;5010923;28;20022;-66
2022/02/16 05:13:09;;;;;;;2.90;0.70;;;;;;;;;;5010385;28;20037;-66
2022/02/16 05:15:35;;;;;;;2.15;0.90;;;;;;;;;;5010809;28;20072;-66
2022/02/16 05:18:02;;;;;;;1.90;0.85;;;;;;;;;;5009113;28;20046;-67
2022/02/16 05:20:28;;;;;;;6.65;1.25;;;;;;;;;;4994651;28;20030;-65
2022/02/16 05:22:54;;;;;;;1.48;0.60;;;;;;;;;;5006485;28;20046;-67
2022/02/16 05:25:20;;;;;;;2.83;0.75;;;;;;;;;;5010789;28;20030;-67
2022/02/16 05:27:46;;;;;;;3.60;0.93;;;;;;;;;;5011082;28;20037;-66
2022/02/16 05:30:13;;;;;;;2.15;0.77;;;;;;;;;;5010613;28;20030;-67
2022/02/16 05:32:40;;;;;;;4.43;0.90;;;;;;;;;;5008883;28;20022;-67
2022/02/16 05:35:09;;;;;;;2.25;0.77;;;;;;;;;;5000163;28;20424;-66
2022/02/16 05:37:35;;;;;;;2.45;0.60;;;;;;;;;;5000016;28;20071;-66
2022/02/16 05:40:01;;;;;;;2.45;1.05;;;;;;;;;;5010984;28;20101;-65
2022/02/16 05:42:27;;;;;;;5.97;1.10;;;;;;;;;;5010524;28;20026;-66
2022/02/16 05:44:53;;;;;;;2.55;0.75;;;;;;;;;;5016843;28;20659;-65
2022/02/16 05:47:19;;;;;;;1.15;0.88;;;;;;;;;;5015523;28;20057;-66
2022/02/16 05:49:45;;;;;;;3.78;1.05;;;;;;;;;;5013255;28;20063;-66
2022/02/16 05:52:12;;;;;;;1.85;0.68;;;;;;;;;;5017279;28;20029;-67
2022/02/16 05:54:38;;;;;;;2.80;0.70;;;;;;;;;;5014505;28;20069;-66
2022/02/16 05:57:06;;;;;;;2.35;0.80;;;;;;;;;;5017354;28;20105;-67
2022/02/16 05:59:32;;;;;;;2.20;0.70;;;;;;;;;;5014378;28;20109;-67
2022/02/16 06:02:03;;;;;;;1.65;0.70;;;;;;;;;;5018472;28;20030;-67
2022/02/16 06:04:32;;;;;;;3.45;0.90;;;;;;;;;;5015058;28;20046;-67
2022/02/16 06:06:59;;;;;;;1.70;0.75;;;;;;;;;;5016384;28;20022;-67
2022/02/16 06:09:26;;;;;;;3.17;0.80;;;;;;;;;;5014708;28;20037;-67
2022/02/16 06:11:52;;;;;;;3.13;0.90;;;;;;;;;;5019544;28;20035;-67
2022/02/16 06:14:18;;;;;;;6.28;0.90;;;;;;;;;;5014980;28;20065;-67
2022/02/16 06:16:44;;;;;;;2.58;1.08;;;;;;;;;;5017167;28;20059;-66
2022/02/16 06:19:10;;;;;;;1.08;0.50;;;;;;;;;;5012918;28;20499;-66
2022/02/16 06:21:36;;;;;;;2.10;0.70;;;;;;;;;;5019286;28;20030;-66
2022/02/16 06:24:02;;;;;;;2.95;1.15;;;;;;;;;;5016442;28;20164;-66
2022/02/16 06:26:28;;;;;;;2.20;0.80;;;;;;;;;;5012721;28;20026;-66
2022/02/16 06:28:54;;;;;;;2.70;0.80;;;;;;;;;;5015572;28;20053;-65
2022/02/16 06:31:20;;;;;;;1.35;0.70;;;;;;;;;;5014561;28;20029;-65
2022/02/16 06:33:46;;;;;;;4.13;0.68;;;;;;;;;;5016617;28;20042;-66
2022/02/16 06:36:12;;;;;;;1.33;0.70;;;;;;;;;;5017565;28;20109;-67
2022/02/16 06:38:38;;;;;;;3.30;0.70;;;;;;;;;;5016210;28;20049;-67
2022/02/16 06:41:04;;;;;;;2.72;0.55;;;;;;;;;;5018303;28;20117;-67
2022/02/16 06:43:31;;;;;;;2.33;0.70;;;;;;;;;;5016980;28;20030;-66
2022/02/16 06:45:56;;;;;;;4.80;0.60;;;;;;;;;;4992743;28;20079;-66
2022/02/16 06:48:23;;;;;;;2.10;0.85;;;;;;;;;;5018877;28;20076;-66
2022/02/16 06:50:50;;;;;;;4.00;1.40;;;;;;;;;;5015667;28;20120;-66
2022/02/16 06:53:16;;;;;;;2.78;0.60;;;;;;;;;;5011977;28;20061;-66
2022/02/16 06:55:42;;;;;;;2.92;0.88;;;;;;;;;;5016387;28;20026;-65
2022/02/16 06:58:08;;;;;;;3.00;0.77;;;;;;;;;;5016428;28;20025;-66
2022/02/16 07:00:34;;;;;;;1.65;0.70;;;;;;;;;;5012691;28;20018;-66
2022/02/16 07:03:00;;;;;;;1.67;0.73;;;;;;;;;;5013406;28;20030;-65
2022/02/16 07:05:26;;;;;;;2.47;0.60;;;;;;;;;;5012356;28;20026;-65
2022/02/16 07:07:52;;;;;;;2.47;0.70;;;;;;;;;;5017390;28;20387;-65
2022/02/16 07:10:18;;;;;;;1.27;0.40;;;;;;;;;;5018622;28;20053;-66
2022/02/16 07:12:44;;;;;;;1.30;0.52;;;;;;;;;;5014925;28;20061;-66
2022/02/16 07:15:11;;;;;;;1.17;0.60;;;;;;;;;;5015291;28;20080;-65
2022/02/16 07:17:41;;;;;;;2.47;0.75;;;;;;;;;;5015394;28;20061;-66
2022/02/16 07:20:08;;;;;;;;;;;;;;;;;;5016952;28;20030;-66
2022/02/16 07:22:37;;;;;;;5.65;1.00;;;;;;;;;;5014269;28;20450;-65
2022/02/16 07:25:04;;;;;;;3.65;0.70;;;;;;;;;;5017571;28;20075;-66
2022/02/16 07:27:30;;;;;;;3.10;0.50;;;;;;;;;;5017186;28;20109;-66
2022/02/16 07:29:57;;;;;;;4.70;0.75;;;;;;;;;;5015714;28;20112;-65
2022/02/16 07:32:23;;;;;;;2.30;0.70;;;;;;;;;;5013140;28;20053;-65
2022/02/16 07:34:49;;;;;;;3.83;0.55;;;;;;;;;;5016663;28;20466;-66
2022/02/16 07:37:15;;;;;;;2.17;0.43;;;;;;;;;;5016252;28;20022;-66
2022/02/16 07:39:41;;;;;;;0.98;0.45;;;;;;;;;;5019344;28;20037;-66
2022/02/16 07:42:08;;;;;;;3.35;0.55;;;;;;;;;;5024266;28;20025;-66
2022/02/16 07:44:34;;;;;;;5.32;0.50;;;;;;;;;;5017597;28;20642;-64
2022/02/16 07:47:02;;;;;;;9.93;0.70;;;;;;;;;;5021108;28;20064;-66
2022/02/16 07:49:28;;;;;;;4.72;0.68;;;;;;;;;;5019215;28;20029;-65
2022/02/16 07:51:54;;;;;;;6.50;0.60;;;;;;;;;;5019586;28;20030;-64
2022/02/16 07:54:20;;;;;;;3.25;0.60;;;;;;;;;;5017307;28;20116;-66
2022/02/16 07:56:47;;;;;;;5.28;0.90;;;;;;;;;;5018994;28;20033;-64
2022/02/16 07:59:13;;;;;;;3.30;1.02;;;;;;;;;;5020353;28;20515;-65
2022/02/16 08:01:39;;;;;;;5.35;0.73;;;;;;;;;;5019738;28;20034;-65
2022/02/16 08:04:17;;;;;;;1.83;0.75;;;;;;;;;;5019259;28;20056;-65
2022/02/16 08:06:43;;;;;;;1.52;0.60;;;;;;;;;;5017123;28;20018;-66
2022/02/16 08:09:10;;;;;;;3.08;0.40;;;;;;;;;;5018073;28;20109;-64
2022/02/16 08:11:39;;;;;;;7.35;0.82;;;;;;;;;;5019649;28;20033;-65
2022/02/16 08:14:06;;;;;;;4.32;0.80;;;;;;;;;;5017721;28;20152;-65
2022/02/16 08:16:32;;;;;;;4.72;0.80;;;;;;;;;;5019119;28;20583;-66
2022/02/16 08:18:58;;;;;;;2.42;0.60;;;;;;;;;;5015826;28;20109;-66
2022/02/16 08:21:25;;;;;;;6.40;0.73;;;;;;;;;;5019637;28;20100;-67
2022/02/16 08:23:51;;;;;;;8.15;0.82;;;;;;;;;;5018424;28;20018;-66
2022/02/16 08:26:17;;;;;;;2.15;0.73;;;;;;;;;;5019919;28;20021;-64
2022/02/16 08:28:43;;;;;;;8.43;0.82;;;;;;;;;;5017567;28;20030;-66
2022/02/16 08:31:10;;;;;;;4.18;0.55;;;;;;;;;;5019227;28;20022;-65
2022/02/16 08:33:36;;;;;;;9.52;1.00;;;;;;;;;;5018413;28;20099;-65
2022/02/16 08:36:02;;;;;;;2.75;0.77;;;;;;;;;;5012894;28;20112;-63
2022/02/16 08:38:28;;;;;;;3.85;0.70;;;;;;;;;;5015018;28;20018;-63
2022/02/16 08:40:54;;;;;;;2.83;0.82;;;;;;;;;;5019110;28;20054;-64
2022/02/16 08:43:20;;;;;;;6.03;0.80;;;;;;;;;;5021575;28;20084;-64
2022/02/16 08:45:47;;;;;;;2.15;0.60;;;;;;;;;;5018793;28;20022;-65
2022/02/16 08:48:14;;;;;;;5.82;0.70;;;;;;;;;;5016498;28;20022;-64
2022/02/16 08:50:40;;;;;;;7.43;0.90;;;;;;;;;;5003420;28;20018;-64
2022/02/16 08:53:06;;;;;;;8.50;1.00;;;;;;;;;;5001443;28;20499;-64
2022/02/16 08:55:32;;;;;;;13.40;1.27;;;;;;;;;;4999956;28;20406;-64
2022/02/16 08:57:58;;;;;;;3.00;0.75;;;;;;;;;;4993554;28;20423;-64
2022/02/16 09:00:24;;;;;;;8.63;0.82;;;;;;;;;;5008420;28;20156;-65
2022/02/16 09:02:51;;;;;;;2.17;0.50;;;;;;;;;;4991336;28;20110;-65
2022/02/16 09:05:17;;;;;;;7.60;0.93;;;;;;;;;;4998184;28;20044;-65
2022/02/16 09:07:43;;;;;;;4.72;0.70;;;;;;;;;;5004757;28;20473;-65
2022/02/16 09:10:11;;;;;;;8.45;1.15;;;;;;;;;;5006456;28;20026;-65
2022/02/16 09:12:37;;;;;;;11.32;0.93;;;;;;;;;;5004281;28;20053;-64
2022/02/16 09:15:04;;;;;;;7.97;2.40;;;;;;;;;;4998233;28;20092;-65
2022/02/16 09:17:30;;;;;;;9.13;1.75;;;;;;;;;;5002045;28;20038;-67
2022/02/16 09:19:57;;;;;;;15.57;2.53;;;;;;;;;;4999101;28;20025;-64
2022/02/16 09:22:23;;;;;;;13.75;2.05;;;;;;;;;;5008868;28;20036;-66
2022/02/16 09:24:50;;;;;;;6.47;1.70;;;;;;;;;;5009161;28;20445;-66
2022/02/16 09:27:18;;;;;;;8.25;1.15;;;;;;;;;;5008550;28;20045;-68
2022/02/16 09:29:45;;;;;;;5.82;1.20;;;;;;;;;;4992850;28;20769;-69
2022/02/16 09:32:11;;;;;;;4.60;1.05;;;;;;;;;;5008722;28;20022;-69
2022/02/16 09:34:37;;;;;;;7.55;1.30;;;;;;;;;;5008457;28;20068;-69
2022/02/16 09:37:03;;;;;;;5.10;0.98;;;;;;;;;;5009546;28;20529;-69
2022/02/16 09:39:29;;;;;;;3.35;0.98;;;;;;;;;;5010681;28;20101;-69
2022/02/16 09:41:55;;;;;;;7.80;1.63;;;;;;;;;;5009740;28;20053;-69
2022/02/16 09:44:45;;;;;;;4.57;1.00;;;;;;;;;;5009724;28;20091;-70
2022/02/16 09:47:11;;;;;;;5.40;1.20;;;;;;;;;;5001332;28;20037;-70
2022/02/16 09:49:41;;;;;;;4.80;0.98;;;;;;;;;;5009738;28;20051;-70
2022/02/16 09:52:09;;;;;;;5.15;1.08;;;;;;;;;;5008265;28;20032;-69
2022/02/16 09:54:35;;;;;;;3.63;1.30;;;;;;;;;;5010137;28;20045;-70
2022/02/16 09:57:01;;;;;;;5.55;1.73;;;;;;;;;;5009845;28;20575;-70
2022/02/16 09:59:27;;;;;;;5.68;1.00;;;;;;;;;;5008927;28;20113;-68
2022/02/16 10:01:58;;;;;;;6.43;1.40;;;;;;;;;;5008475;28;20037;-70
2022/02/16 10:04:27;;;;;;;6.07;1.20;;;;;;;;;;5008036;28;20036;-68
2022/02/16 10:06:54;;;;;;;2.55;0.93;;;;;;;;;;5008516;28;20038;-71
2022/02/16 10:09:30;;;;;;;3.53;0.73;;;;;;;;;;5009400;28;20022;-70
2022/02/16 10:12:01;;;;;;;4.25;0.90;;;;;;;;;;5009294;28;20048;-70
2022/02/16 10:14:29;;;;;;;6.05;1.08;;;;;;;;;;5008978;28;20200;-69
2022/02/16 10:16:56;;;;;;;2.75;0.80;;;;;;;;;;5009521;28;20145;-71
2022/02/16 10:19:22;;;;;;;4.63;0.80;;;;;;;;;;5008542;28;20044;-71
2022/02/16 10:22:00;;;;;;;1.42;0.82;;;;;;;;;;5007710;28;20104;-69
2022/02/16 10:24:27;;;;;;;4.05;0.90;;;;;;;;;;5009737;28;20026;-68
2022/02/16 10:26:56;;;;;;;2.15;0.80;;;;;;;;;;5009291;28;20060;-68
2022/02/16 10:29:24;;;;;;;3.58;0.93;;;;;;;;;;5009984;28;20025;-70
2022/02/16 10:31:50;;;;;;;6.50;0.90;;;;;;;;;;5009815;28;20117;-69
2022/02/16 10:34:16;;;;;;;2.38;0.70;;;;;;;;;;5009367;28;20120;-70
2022/02/16 10:36:46;;;;;;;3.08;0.68;;;;;;;;;;5008436;28;20029;-69
2022/02/16 10:39:14;;;;;;;4.82;0.90;;;;;;;;;;5009286;28;20017;-70
2022/02/16 10:41:42;;;;;;;9.00;1.20;;;;;;;;;;5008993;28;20028;-71
2022/02/16 10:44:20;;;;;;;6.22;0.77;;;;;;;;;;5009361;28;20026;-70
2022/02/16 10:46:58;;;;;;;5.07;0.70;;;;;;;;;;5008445;28;20839;-69
2022/02/16 10:49:25;;;;;;;6.65;0.93;;;;;;;;;;5010161;28;20033;-69
2022/02/16 10:52:02;;;;;;;7.53;0.95;;;;;;;;;;5007427;28;20106;-66
2022/02/16 10:54:28;;;;;;;2.08;0.63;;;;;;;;;;5006909;28;20174;-66
2022/02/16 10:56:54;;;;;;;5.13;1.08;;;;;;;;;;5008659;28;20030;-65
2022/02/16 10:59:20;;;;;;;6.57;1.05;;;;;;;;;;5008940;28;20433;-65
2022/02/16 11:01:47;;;;;;;2.13;0.75;;;;;;;;;;5009030;28;20133;-66
2022/02/16 11:04:15;;;;;;;4.88;0.80;;;;;;;;;;5001987;28;20061;-66
2022/02/16 11:06:43;;;;;;;4.03;0.88;;;;;;;;;;5007987;28;20026;-65
2022/02/16 11:09:13;;;;;;;5.47;0.93;;;;;;;;;;4999544;28;20113;-66
2022/02/16 11:11:41;;;;;;;2.47;0.52;;;;;;;;;;5007478;28;20036;-67
2022/02/16 11:14:08;;;;;;;3.95;0.90;;;;;;;;;;5006006;28;20076;-65
2022/02/16 11:16:35;;;;;;;3.38;0.95;;;;;;;;;;5004018;28;20108;-66
2022/02/16 11:19:04;;;;;;;3.42;0.55;;;;;;;;;;5008647;28;20033;-65
2022/02/16 11:21:30;;;;;;;4.75;0.85;;;;;;;;;;5005846;28;20018;-67
2022/02/16 11:23:56;;;;;;;3.67;0.90;;;;;;;;;;5004485;28;20949;-66
2022/02/16 11:26:22;;;;;;;4.00;0.70;;;;;;;;;;5010694;28;20033;-69
2022/02/16 11:28:48;;;;;;;2.83;1.05;;;;;;;;;;5005449;28;20026;-64
2022/02/16 11:31:31;;;;;;;5.20;1.45;;;;;;;;;;5006067;28;20393;-66
2022/02/16 11:34:12;;;;;;;6.70;0.80;;;;;;;;;;5003576;28;20049;-67
2022/02/16 11:36:46;;;;;;;4.72;1.27;;;;;;;;;;5007984;28;20022;-66
2022/02/16 11:39:12;;;;;;;10.93;2.00;;;;;;;;;;5009101;28;20068;-66
2022/02/16 11:41:54;;;;;;;7.85;2.55;;;;;;;;;;5007176;28;20494;-66
2022/02/16 11:44:20;;;;;;;4.82;1.35;;;;;;;;;;5006249;28;20108;-66
2022/02/16 11:46:51;;;;;;;8.75;2.00;;;;;;;;;;5012391;28;20037;-66
2022/02/16 11:49:32;;;;;;;8.77;1.50;;;;;;;;;;5008419;28;20208;-66
2022/02/16 11:51:58;;;;;;;8.85;1.50;;;;;;;;;;5001111;28;20108;-67
2022/02/16 11:54:45;;;;;;;55.20;32.35;;;;;;;;;;5000641;28;20048;-66
2022/02/16 11:57:30;;;;;;;56.22;30.63;;;;;;;;;;5009475;28;20041;-66
2022/02/16 12:00:00;;;;;;;49.50;29.48;;;;;;;;;;5010639;28;20038;-66
2022/02/16 12:02:27;;;;;;;50.45;30.02;;;;;;;;;;4999871;28;20044;-65
2022/02/16 12:04:59;;;;;;;58.97;29.63;;;;;;;;;;5004347;28;21287;-66
2022/02/16 12:07:29;;;;;;;50.60;29.50;;;;;;;;;;5008109;28;20038;-69
2022/02/16 12:09:55;;;;;;;;;;;;;;;;;;5003949;28;20141;-68
2022/02/16 12:12:28;;;;;;;47.00;25.77;;;;;;;;;;4980790;28;19914;-68
2022/02/16 12:14:54;;;;;;;51.00;26.48;;;;;;;;;;4981696;28;20056;-67
2022/02/16 12:17:22;;;;;;;45.17;24.70;;;;;;;;;;4981537;28;20026;-68
2022/02/16 12:19:48;;;;;;;39.42;23.45;;;;;;;;;;4997538;28;20033;-67
2022/02/16 12:22:20;;;;;;;43.88;24.23;;;;;;;;;;4995525;28;20037;-68
2022/02/16 12:24:46;;;;;;;54.25;25.17;;;;;;;;;;4977338;28;20385;-69
2022/02/16 12:27:13;;;;;;;34.67;23.20;;;;;;;;;;4982152;28;20076;-67
2022/02/16 12:29:39;;;;;;;43.38;23.88;;;;;;;;;;4982191;28;20077;-69
2022/02/16 12:32:08;;;;;;;36.20;20.33;;;;;;;;;;4984820;28;20036;-69
2022/02/16 12:34:34;;;;;;;33.13;21.90;;;;;;;;;;4986050;28;20041;-69
2022/02/16 12:37:00;;;;;;;36.58;19.25;;;;;;;;;;4997381;28;20029;-65
2022/02/16 12:39:28;;;;;;;31.45;15.85;;;;;;;;;;5008109;28;20081;-67
2022/02/16 12:41:54;;;;;;;30.70;16.15;;;;;;;;;;5008043;28;20044;-68
2022/02/16 12:44:22;;;;;;;28.15;15.98;;;;;;;;;;5007590;28;20046;-68
2022/02/16 12:46:49;;;;;;;27.05;14.40;;;;;;;;;;5001714;28;20030;-69
2022/02/16 12:49:16;;;;;;;23.92;14.20;;;;;;;;;;5010186;28;20629;-69
2022/02/16 12:51:46;;;;;;;29.80;14.77;;;;;;;;;;5009324;28;20033;-69
2022/02/16 12:54:14;;;;;;;27.55;14.07;;;;;;;;;;5003165;28;20080;-68
2022/02/16 12:56:47;;;;;;;25.65;13.45;;;;;;;;;;5007551;28;20452;-68
2022/02/16 12:59:21;;;;;;;29.17;13.93;;;;;;;;;;4998399;28;20413;-69
2022/02/16 13:01:48;;;;;;;28.05;13.32;;;;;;;;;;5006040;28;20029;-69
2022/02/16 13:04:14;;;;;;;25.30;13.23;;;;;;;;;;5009466;28;20869;-68
2022/02/16 13:06:42;;;;;;;28.52;13.40;;;;;;;;;;5009548;28;20061;-71
2022/02/16 13:09:09;;;;;;;24.23;12.30;;;;;;;;;;5010428;28;20051;-70
2022/02/16 13:11:44;;;;;;;27.83;13.23;;;;;;;;;;5011336;28;20037;-70
2022/02/16 13:14:11;;;;;;;26.23;13.27;;;;;;;;;;5010100;28;20049;-69
2022/02/16 13:16:37;;;;;;;25.25;11.55;;;;;;;;;;5011075;28;20530;-69
2022/02/16 13:19:03;;;;;;;24.33;11.45;;;;;;;;;;5010427;28;20026;-69
2022/02/16 13:21:29;;;;;;;26.48;12.55;;;;;;;;;;4991481;28;20030;-69
2022/02/16 13:24:05;;;;;;;21.30;10.90;;;;;;;;;;5006557;28;20022;-69
2022/02/16 13:26:36;;;;;;;20.58;11.07;;;;;;;;;;5000953;28;20029;-69
2022/02/16 13:29:04;;;;;;;34.00;11.60;;;;;;;;;;5010557;28;20022;-70
2022/02/16 13:31:34;;;;;;;30.55;11.43;;;;;;;;;;5010544;28;20026;-69
2022/02/16 13:34:02;;;;;;;21.27;10.98;;;;;;;;;;5010185;28;20121;-69
2022/02/16 13:36:36;;;;;;;22.77;11.27;;;;;;;;;;5010097;28;20017;-68
2022/02/16 13:39:15;;;;;;;26.75;12.05;;;;;;;;;;5010250;28;20026;-68
2022/02/16 13:42:10;;;;;;;22.58;9.90;;;;;;;;;;5010559;28;20030;-69
2022/02/16 13:44:37;;;;;;;15.55;8.73;;;;;;;;;;4994082;28;20045;-70
2022/02/16 13:47:04;;;;;;;16.85;9.10;;;;;;;;;;5010342;28;20029;-71
2022/02/16 13:49:31;;;;;;;19.75;9.50;;;;;;;;;;5015711;28;20510;-70
2022/02/16 13:52:00;;;;;;;18.50;9.98;;;;;;;;;;5010428;28;20018;-71
2022/02/16 13:54:27;;;;;;;18.83;9.02;;;;;;;;;;5009793;28;20577;-71
2022/02/16 13:56:54;;;;;;;18.88;9.20;;;;;;;;;;5010338;28;20128;-70
2022/02/16 13:59:20;;;;;;;21.50;9.00;;;;;;;;;;5009591;28;20026;-70
2022/02/16 14:02:06;;;;;;;18.88;8.77;;;;;;;;;;5010019;28;20424;-70
2022/02/16 14:04:33;;;;;;;17.48;7.80;;;;;;;;;;5009984;28;20028;-70
2022/02/16 14:07:00;;;;;;;17.70;8.48;;;;;;;;;;5009989;28;20076;-70
2022/02/16 14:09:26;;;;;;;23.40;9.63;;;;;;;;;;5006558;28;20041;-70
2022/02/16 14:11:52;;;;;;;19.20;7.68;;;;;;;;;;5000697;28;20026;-70
2022/02/16 14:14:18;;;;;;;20.35;9.45;;;;;;;;;;4994704;28;20045;-70
2022/02/16 14:16:44;;;;;;;16.80;8.73;;;;;;;;;;5003304;28;20547;-71
2022/02/16 14:19:22;;;;;;;16.83;7.57;;;;;;;;;;4998354;28;20034;-71
2022/02/16 14:21:49;;;;;;;15.75;8.50;;;;;;;;;;5008597;28;20487;-69
2022/02/16 14:24:15;;;;;;;15.40;7.57;;;;;;;;;;5007795;28;20026;-71
2022/02/16 14:26:41;;;;;;;22.60;7.85;;;;;;;;;;5006284;28;20022;-70
2022/02/16 14:29:07;;;;;;;16.50;7.28;;;;;;;;;;4997661;28;20085;-70
2022/02/16 14:31:33;;;;;;;17.98;8.07;;;;;;;;;;5007273;28;20117;-69
2022/02/16 14:34:00;;;;;;;19.05;7.25;;;;;;;;;;5005367;28;20136;-69
2022/02/16 14:36:27;;;;;;;18.42;7.22;;;;;;;;;;5008475;28;20500;-68
2022/02/16 14:38:54;;;;;;;15.35;7.40;;;;;;;;;;5009724;28;20026;-69